Decoded Metar for LJMB (MARIBOR in SLOVENIA) (IATA:MBX) | Meteo·Mobile Aviation Weather
aviador You're here:

LJMB Decoded Metar

MARIBOR in SLOVENIA
Report Time2018-10-20 08:30:00
UTC Time2018-10-20 08:48:50
Flight Rules vfr VFR
WindVRB at 02 kt
Visibility9999 m
Phenomena:N/A
Clouds:N/A
Expected CloudBase > 1,600 ft AGL from Temp-Dew spread
CeilingNone
Temp14°C (ISA +1)
Dew Point10°C (77% RH)
AAT13.3°C
QNH1026 hPa
Density Alt686 ft
Elevation869 ft
Report Wrong Elevation
Raw Report
METAR LJMB 200830Z VRB02KT CAVOK 14/10 Q1026=

Extra information for LJMB:More info

Metar Taf Metar & Taf Last 4 Metars F.Rules Stats Wind Profile Meteogram Temp Stats Airport Information Weather charts Add Link Nearby VenuesMetar ALERT Operation Metar Decoded Social comments